sensor_id;sensor_type;location;lat;lon;timestamp;pressure;altitude;pressure_sealevel;temperature;humidity
71976;BME280;68326;52.124;5.424;2023-04-21T00:01:38;101640.88;;;9.03;85.03
71976;BME280;68326;52.124;5.424;2023-04-21T00:04:04;101639.09;;;9.05;84.49
71976;BME280;68326;52.124;5.424;2023-04-21T00:06:32;101634.97;;;8.99;85.78
71976;BME280;68326;52.124;5.424;2023-04-21T00:08:59;101623.84;;;8.94;86.30
71976;BME280;68326;52.124;5.424;2023-04-21T00:11:25;101623.91;;;8.92;86.44
71976;BME280;68326;52.124;5.424;2023-04-21T00:13:52;101628.25;;;8.92;86.36
71976;BME280;68326;52.124;5.424;2023-04-21T00:16:18;101619.75;;;8.87;87.33
71976;BME280;68326;52.124;5.424;2023-04-21T00:18:46;101611.06;;;8.88;87.74
71976;BME280;68326;52.124;5.424;2023-04-21T00:21:13;101605.19;;;8.83;87.51
71976;BME280;68326;52.124;5.424;2023-04-21T00:23:39;101600.88;;;8.82;88.15
71976;BME280;68326;52.124;5.424;2023-04-21T00:26:05;101610.38;;;8.83;88.16
71976;BME280;68326;52.124;5.424;2023-04-21T00:28:32;101607.84;;;8.80;88.90
71976;BME280;68326;52.124;5.424;2023-04-21T00:30:58;101600.97;;;8.78;89.34
71976;BME280;68326;52.124;5.424;2023-04-21T00:33:25;101607.16;;;8.74;89.10
71976;BME280;68326;52.124;5.424;2023-04-21T00:35:52;101606.34;;;8.72;89.97
71976;BME280;68326;52.124;5.424;2023-04-21T00:38:19;101604.66;;;8.71;90.06
71976;BME280;68326;52.124;5.424;2023-04-21T00:40:46;101596.88;;;8.71;90.24
71976;BME280;68326;52.124;5.424;2023-04-21T00:43:12;101586.69;;;8.65;90.05
71976;BME280;68326;52.124;5.424;2023-04-21T00:45:39;101591.06;;;8.63;90.78
71976;BME280;68326;52.124;5.424;2023-04-21T00:48:06;101596.34;;;8.60;91.34
71976;BME280;68326;52.124;5.424;2023-04-21T00:50:32;101591.22;;;8.59;91.59
71976;BME280;68326;52.124;5.424;2023-04-21T00:52:59;101590.31;;;8.60;91.73
71976;BME280;68326;52.124;5.424;2023-04-21T00:55:25;101589.34;;;8.62;91.73
71976;BME280;68326;52.124;5.424;2023-04-21T00:57:52;101583.31;;;8.62;92.14
71976;BME280;68326;52.124;5.424;2023-04-21T01:00:20;101579.88;;;8.61;92.17
71976;BME280;68326;52.124;5.424;2023-04-21T01:02:47;101573.94;;;8.57;92.59
71976;BME280;68326;52.124;5.424;2023-04-21T01:05:13;101570.56;;;8.54;92.93
71976;BME280;68326;52.124;5.424;2023-04-21T01:07:41;101570.69;;;8.51;92.97
71976;BME280;68326;52.124;5.424;2023-04-21T01:10:09;101574.97;;;8.52;93.46
71976;BME280;68326;52.124;5.424;2023-04-21T01:12:43;101564.38;;;8.60;93.67
71976;BME280;68326;52.124;5.424;2023-04-21T01:15:15;101572.09;;;8.61;93.85
71976;BME280;68326;52.124;5.424;2023-04-21T01:17:42;101562.63;;;8.60;94.00
71976;BME280;68326;52.124;5.424;2023-04-21T01:20:11;101570.34;;;8.62;93.98
71976;BME280;68326;52.124;5.424;2023-04-21T01:22:40;101557.41;;;8.60;93.91
71976;BME280;68326;52.124;5.424;2023-04-21T01:25:08;101552.22;;;8.60;93.72
71976;BME280;68326;52.124;5.424;2023-04-21T01:27:34;101554.00;;;8.60;94.82
71976;BME280;68326;52.124;5.424;2023-04-21T01:30:01;101555.59;;;8.64;94.64
71976;BME280;68326;52.124;5.424;2023-04-21T01:32:29;101546.91;;;8.65;94.37
71976;BME280;68326;52.124;5.424;2023-04-21T01:34:56;101543.44;;;8.66;95.15
71976;BME280;68326;52.124;5.424;2023-04-21T01:37:26;101541.78;;;8.63;94.86
71976;BME280;68326;52.124;5.424;2023-04-21T01:39:55;101539.19;;;8.63;95.20
71976;BME280;68326;52.124;5.424;2023-04-21T01:42:24;101532.25;;;8.64;95.50
71976;BME280;68326;52.124;5.424;2023-04-21T01:44:51;101533.94;;;8.65;95.20
71976;BME280;68326;52.124;5.424;2023-04-21T01:47:19;101531.34;;;8.65;95.57
71976;BME280;68326;52.124;5.424;2023-04-21T01:49:46;101523.50;;;8.66;95.41
71976;BME280;68326;52.124;5.424;2023-04-21T01:52:12;101525.31;;;8.64;95.33
71976;BME280;68326;52.124;5.424;2023-04-21T01:54:39;101519.28;;;8.64;95.23
71976;BME280;68326;52.124;5.424;2023-04-21T01:57:05;101515.75;;;8.65;95.86
71976;BME280;68326;52.124;5.424;2023-04-21T01:59:32;101519.13;;;8.68;95.61
71976;BME280;68326;52.124;5.424;2023-04-21T02:01:59;101526.06;;;8.68;95.45
71976;BME280;68326;52.124;5.424;2023-04-21T02:04:25;101526.94;;;8.67;95.74
71976;BME280;68326;52.124;5.424;2023-04-21T02:06:52;101533.19;;;8.61;95.96
71976;BME280;68326;52.124;5.424;2023-04-21T02:09:18;101533.03;;;8.66;96.73
71976;BME280;68326;52.124;5.424;2023-04-21T02:11:45;101535.59;;;8.67;96.51
71976;BME280;68326;52.124;5.424;2023-04-21T02:14:11;101545.88;;;8.70;96.58
71976;BME280;68326;52.124;5.424;2023-04-21T02:16:38;101541.63;;;8.68;96.70
71976;BME280;68326;52.124;5.424;2023-04-21T02:19:04;101533.88;;;8.66;96.41
71976;BME280;68326;52.124;5.424;2023-04-21T02:21:31;101526.06;;;8.68;96.49
71976;BME280;68326;52.124;5.424;2023-04-21T02:23:57;101531.34;;;8.65;96.67
71976;BME280;68326;52.124;5.424;2023-04-21T02:26:24;101528.66;;;8.68;96.77
71976;BME280;68326;52.124;5.424;2023-04-21T02:28:50;101522.63;;;8.67;96.60
71976;BME280;68326;52.124;5.424;2023-04-21T02:31:17;101519.22;;;8.65;96.77
71976;BME280;68326;52.124;5.424;2023-04-21T02:33:44;101527.00;;;8.65;97.44
71976;BME280;68326;52.124;5.424;2023-04-21T02:36:11;101527.81;;;8.67;97.57
71976;BME280;68326;52.124;5.424;2023-04-21T02:38:37;101531.22;;;8.69;97.49
71976;BME280;68326;52.124;5.424;2023-04-21T02:41:03;101519.03;;;8.71;97.52
71976;BME280;68326;52.124;5.424;2023-04-21T02:43:30;101522.47;;;8.72;97.58
71976;BME280;68326;52.124;5.424;2023-04-21T02:45:56;101523.28;;;8.74;97.46
71976;BME280;68326;52.124;5.424;2023-04-21T02:48:23;101518.16;;;8.71;97.06
71976;BME280;68326;52.124;5.424;2023-04-21T02:50:50;101528.56;;;8.71;97.14
71976;BME280;68326;52.124;5.424;2023-04-21T02:53:19;101519.91;;;8.70;97.84
71976;BME280;68326;52.124;5.424;2023-04-21T02:55:46;101509.50;;;8.72;97.14
71976;BME280;68326;52.124;5.424;2023-04-21T02:58:12;101507.75;;;8.72;97.35
71976;BME280;68326;52.124;5.424;2023-04-21T03:00:39;101502.56;;;8.72;97.44
71976;BME280;68326;52.124;5.424;2023-04-21T03:03:05;101506.91;;;8.72;97.36
71976;BME280;68326;52.124;5.424;2023-04-21T03:05:32;101508.59;;;8.73;97.56
71976;BME280;68326;52.124;5.424;2023-04-21T03:07:58;101512.13;;;8.70;97.70
71976;BME280;68326;52.124;5.424;2023-04-21T03:10:25;101503.56;;;8.68;97.59
71976;BME280;68326;52.124;5.424;2023-04-21T03:12:51;101512.25;;;8.67;97.58
71976;BME280;68326;52.124;5.424;2023-04-21T03:15:19;101512.28;;;8.66;97.88
71976;BME280;68326;52.124;5.424;2023-04-21T03:17:46;101516.63;;;8.65;97.65
71976;BME280;68326;52.124;5.424;2023-04-21T03:20:12;101510.50;;;8.68;98.04
71976;BME280;68326;52.124;5.424;2023-04-21T03:22:39;101504.41;;;8.69;97.93
71976;BME280;68326;52.124;5.424;2023-04-21T03:25:05;101498.38;;;8.68;97.54
71976;BME280;68326;52.124;5.424;2023-04-21T03:27:33;101501.81;;;8.69;97.63
71976;BME280;68326;52.124;5.424;2023-04-21T03:30:00;101492.28;;;8.69;98.11
71976;BME280;68326;52.124;5.424;2023-04-21T03:32:26;101513.06;;;8.69;97.83
71976;BME280;68326;52.124;5.424;2023-04-21T03:34:53;101500.00;;;8.71;97.64
71976;BME280;68326;52.124;5.424;2023-04-21T03:37:19;101506.09;;;8.70;97.55
71976;BME280;68326;52.124;5.424;2023-04-21T03:39:46;101480.16;;;8.70;98.14
71976;BME280;68326;52.124;5.424;2023-04-21T03:42:12;101500.06;;;8.69;97.97
71976;BME280;68326;52.124;5.424;2023-04-21T03:44:39;101503.59;;;8.67;98.04
71976;BME280;68326;52.124;5.424;2023-04-21T03:47:05;101498.41;;;8.67;98.51
71976;BME280;68326;52.124;5.424;2023-04-21T03:49:35;101488.81;;;8.69;98.73
71976;BME280;68326;52.124;5.424;2023-04-21T03:52:01;101479.31;;;8.69;98.37
71976;BME280;68326;52.124;5.424;2023-04-21T03:54:28;101485.31;;;8.71;98.31
71976;BME280;68326;52.124;5.424;2023-04-21T03:56:54;101471.47;;;8.71;98.23
71976;BME280;68326;52.124;5.424;2023-04-21T03:59:21;101470.59;;;8.72;98.65
71976;BME280;68326;52.124;5.424;2023-04-21T04:01:47;101470.75;;;8.67;98.01
71976;BME280;68326;52.124;5.424;2023-04-21T04:04:14;101475.00;;;8.68;98.46
71976;BME280;68326;52.124;5.424;2023-04-21T04:06:41;101494.00;;;8.69;98.28
71976;BME280;68326;52.124;5.424;2023-04-21T04:09:07;101492.38;;;8.66;98.72
71976;BME280;68326;52.124;5.424;2023-04-21T04:11:34;101476.81;;;8.66;98.99
71976;BME280;68326;52.124;5.424;2023-04-21T04:14:00;101466.47;;;8.65;98.86
71976;BME280;68326;52.124;5.424;2023-04-21T04:16:27;101471.66;;;8.65;98.79
71976;BME280;68326;52.124;5.424;2023-04-21T04:18:54;101463.94;;;8.63;98.95
71976;BME280;68326;52.124;5.424;2023-04-21T04:21:21;101458.69;;;8.65;99.20
71976;BME280;68326;52.124;5.424;2023-04-21T04:23:49;101466.44;;;8.66;98.99
71976;BME280;68326;52.124;5.424;2023-04-21T04:26:17;101454.25;;;8.68;99.32
71976;BME280;68326;52.124;5.424;2023-04-21T04:28:44;101462.19;;;8.64;99.38
71976;BME280;68326;52.124;5.424;2023-04-21T04:31:11;101461.41;;;8.62;99.07
71976;BME280;68326;52.124;5.424;2023-04-21T04:33:42;101476.97;;;8.62;99.50
71976;BME280;68326;52.124;5.424;2023-04-21T04:36:09;101469.13;;;8.63;99.67
71976;BME280;68326;52.124;5.424;2023-04-21T04:38:37;101460.41;;;8.66;99.78
71976;BME280;68326;52.124;5.424;2023-04-21T04:41:03;101469.03;;;8.66;99.21
71976;BME280;68326;52.124;5.424;2023-04-21T04:43:30;101476.84;;;8.65;99.04
71976;BME280;68326;52.124;5.424;2023-04-21T04:45:58;101467.28;;;8.67;99.64
71976;BME280;68326;52.124;5.424;2023-04-21T04:48:25;101469.03;;;8.66;99.16
71976;BME280;68326;52.124;5.424;2023-04-21T04:50:52;101462.88;;;8.69;99.76
71976;BME280;68326;52.124;5.424;2023-04-21T04:53:18;101467.19;;;8.70;99.55
71976;BME280;68326;52.124;5.424;2023-04-21T04:55:45;101461.03;;;8.72;99.53
71976;BME280;68326;52.124;5.424;2023-04-21T04:58:12;101463.63;;;8.72;99.94
71976;BME280;68326;52.124;5.424;2023-04-21T05:00:39;101463.53;;;8.75;99.61
71976;BME280;68326;52.124;5.424;2023-04-21T05:03:06;101472.91;;;8.80;99.28
71976;BME280;68326;52.124;5.424;2023-04-21T05:05:32;101469.50;;;8.77;99.32
71976;BME280;68326;52.124;5.424;2023-04-21T05:07:59;101473.88;;;8.77;99.78
71976;BME280;68326;52.124;5.424;2023-04-21T05:10:25;101475.56;;;8.78;99.68
71976;BME280;68326;52.124;5.424;2023-04-21T05:12:52;101478.16;;;8.78;99.87
71976;BME280;68326;52.124;5.424;2023-04-21T05:15:18;101479.84;;;8.79;99.81
71976;BME280;68326;52.124;5.424;2023-04-21T05:17:44;101472.91;;;8.80;100.00
71976;BME280;68326;52.124;5.424;2023-04-21T05:20:11;101485.88;;;8.80;100.00
71976;BME280;68326;52.124;5.424;2023-04-21T05:22:38;101493.66;;;8.80;100.00
71976;BME280;68326;52.124;5.424;2023-04-21T05:25:05;101485.66;;;8.87;100.00
71976;BME280;68326;52.124;5.424;2023-04-21T05:27:32;101489.78;;;8.93;100.00
71976;BME280;68326;52.124;5.424;2023-04-21T05:30:01;101488.84;;;8.95;99.56
71976;BME280;68326;52.124;5.424;2023-04-21T05:32:27;101479.28;;;8.96;99.49
71976;BME280;68326;52.124;5.424;2023-04-21T05:34:54;101483.69;;;8.94;100.00
71976;BME280;68326;52.124;5.424;2023-04-21T05:37:21;101483.53;;;8.98;100.00
71976;BME280;68326;52.124;5.424;2023-04-21T05:39:47;101493.00;;;9.01;99.92
71976;BME280;68326;52.124;5.424;2023-04-21T05:42:13;101499.81;;;9.04;100.00
71976;BME280;68326;52.124;5.424;2023-04-21T05:44:40;101510.88;;;9.09;100.00
71976;BME280;68326;52.124;5.424;2023-04-21T05:47:06;101514.41;;;9.08;99.80
71976;BME280;68326;52.124;5.424;2023-04-21T05:49:33;101512.59;;;9.10;100.00
71976;BME280;68326;52.124;5.424;2023-04-21T05:51:59;101513.44;;;9.10;100.00
71976;BME280;68326;52.124;5.424;2023-04-21T05:54:26;101511.63;;;9.12;100.00
71976;BME280;68326;52.124;5.424;2023-04-21T05:56:52;101510.63;;;9.16;100.00
71976;BME280;68326;52.124;5.424;2023-04-21T05:59:19;101511.47;;;9.17;100.00
71976;BME280;68326;52.124;5.424;2023-04-21T06:01:45;101502.00;;;9.16;100.00
71976;BME280;68326;52.124;5.424;2023-04-21T06:04:12;101510.53;;;9.19;100.00
71976;BME280;68326;52.124;5.424;2023-04-21T06:06:38;101503.53;;;9.22;100.00
71976;BME280;68326;52.124;5.424;2023-04-21T06:09:05;101503.44;;;9.25;100.00
71976;BME280;68326;52.124;5.424;2023-04-21T06:11:33;101507.63;;;9.29;100.00
71976;BME280;68326;52.124;5.424;2023-04-21T06:13:59;101499.75;;;9.30;100.00
71976;BME280;68326;52.124;5.424;2023-04-21T06:16:27;101500.63;;;9.31;100.00
71976;BME280;68326;52.124;5.424;2023-04-21T06:18:53;101500.56;;;9.32;100.00
71976;BME280;68326;52.124;5.424;2023-04-21T06:21:20;101503.13;;;9.34;100.00
71976;BME280;68326;52.124;5.424;2023-04-21T06:23:46;101507.34;;;9.36;100.00
71976;BME280;68326;52.124;5.424;2023-04-21T06:26:12;101503.78;;;9.39;100.00
71976;BME280;68326;52.124;5.424;2023-04-21T06:28:39;101501.94;;;9.43;100.00
71976;BME280;68326;52.124;5.424;2023-04-21T06:31:06;101500.09;;;9.46;100.00
71976;BME280;68326;52.124;5.424;2023-04-21T06:33:34;101499.94;;;9.51;100.00
71976;BME280;68326;52.124;5.424;2023-04-21T06:36:01;101504.13;;;9.55;100.00
71976;BME280;68326;52.124;5.424;2023-04-21T06:38:27;101494.53;;;9.57;100.00
71976;BME280;68326;52.124;5.424;2023-04-21T06:40:54;101496.16;;;9.59;100.00
71976;BME280;68326;52.124;5.424;2023-04-21T06:43:21;101502.31;;;9.57;100.00
71976;BME280;68326;52.124;5.424;2023-04-21T06:45:47;101498.78;;;9.58;100.00
71976;BME280;68326;52.124;5.424;2023-04-21T06:48:13;101498.69;;;9.61;100.00
71976;BME280;68326;52.124;5.424;2023-04-21T06:50:40;101490.78;;;9.64;100.00
71976;BME280;68326;52.124;5.424;2023-04-21T06:53:09;101488.94;;;9.68;100.00
71976;BME280;68326;52.124;5.424;2023-04-21T06:55:36;101482.69;;;9.73;100.00
71976;BME280;68326;52.124;5.424;2023-04-21T06:58:03;101471.97;;;9.81;100.00
71976;BME280;68326;52.124;5.424;2023-04-21T07:00:29;101480.41;;;9.88;100.00
71976;BME280;68326;52.124;5.424;2023-04-21T07:02:56;101481.00;;;9.94;100.00
71976;BME280;68326;52.124;5.424;2023-04-21T07:05:22;101480.63;;;10.05;100.00
71976;BME280;68326;52.124;5.424;2023-04-21T07:07:49;101482.50;;;10.24;100.00
71976;BME280;68326;52.124;5.424;2023-04-21T07:10:15;101483.69;;;10.38;100.00
71976;BME280;68326;52.124;5.424;2023-04-21T07:12:45;101485.03;;;10.49;100.00
71976;BME280;68326;52.124;5.424;2023-04-21T07:15:11;101485.53;;;10.58;98.88
71976;BME280;68326;52.124;5.424;2023-04-21T07:17:38;101486.75;;;10.70;99.64
71976;BME280;68326;52.124;5.424;2023-04-21T07:20:05;101482.59;;;10.88;98.89
71976;BME280;68326;52.124;5.424;2023-04-21T07:22:31;101480.16;;;10.84;98.69
71976;BME280;68326;52.124;5.424;2023-04-21T07:24:59;101475.91;;;10.81;99.36
71976;BME280;68326;52.124;5.424;2023-04-21T07:27:26;101485.44;;;10.82;98.93
71976;BME280;68326;52.124;5.424;2023-04-21T07:29:52;101485.53;;;10.79;97.80
71976;BME280;68326;52.124;5.424;2023-04-21T07:32:19;101499.00;;;10.68;98.57
71976;BME280;68326;52.124;5.424;2023-04-21T07:34:45;101495.50;;;10.69;98.48
71976;BME280;68326;52.124;5.424;2023-04-21T07:37:13;101493.00;;;10.66;97.29
71976;BME280;68326;52.124;5.424;2023-04-21T07:39:39;101492.81;;;10.71;97.38
71976;BME280;68326;52.124;5.424;2023-04-21T07:42:06;101488.47;;;10.71;96.82
71976;BME280;68326;52.124;5.424;2023-04-21T07:44:33;101493.31;;;10.80;96.85
71976;BME280;68326;52.124;5.424;2023-04-21T07:47:00;101488.81;;;10.84;96.85
71976;BME280;68326;52.124;5.424;2023-04-21T07:49:27;101487.66;;;10.91;97.11
71976;BME280;68326;52.124;5.424;2023-04-21T07:51:53;101485.03;;;10.91;96.00
71976;BME280;68326;52.124;5.424;2023-04-21T07:54:19;101488.03;;;11.02;96.82
71976;BME280;68326;52.124;5.424;2023-04-21T07:56:47;101484.03;;;11.16;95.74
71976;BME280;68326;52.124;5.424;2023-04-21T07:59:13;101479.91;;;11.31;96.16
71976;BME280;68326;52.124;5.424;2023-04-21T08:01:40;101478.66;;;11.39;94.08
71976;BME280;68326;52.124;5.424;2023-04-21T08:04:06;101475.38;;;11.55;95.29
71976;BME280;68326;52.124;5.424;2023-04-21T08:06:33;101464.81;;;11.58;94.14
71976;BME280;68326;52.124;5.424;2023-04-21T08:08:59;101476.00;;;11.60;93.84
71976;BME280;68326;52.124;5.424;2023-04-21T08:11:26;101467.78;;;11.50;92.03
71976;BME280;68326;52.124;5.424;2023-04-21T08:13:53;101474.03;;;11.46;92.17
71976;BME280;68326;52.124;5.424;2023-04-21T08:16:20;101484.41;;;11.48;92.38
71976;BME280;68326;52.124;5.424;2023-04-21T08:18:46;101486.06;;;11.49;93.43
71976;BME280;68326;52.124;5.424;2023-04-21T08:21:13;101484.47;;;11.46;93.11
71976;BME280;68326;52.124;5.424;2023-04-21T08:23:40;101486.13;;;11.47;91.88
71976;BME280;68326;52.124;5.424;2023-04-21T08:26:06;101486.06;;;11.49;92.59
71976;BME280;68326;52.124;5.424;2023-04-21T08:28:33;101476.28;;;11.54;91.80
71976;BME280;68326;52.124;5.424;2023-04-21T08:30:59;101479.06;;;11.70;91.75
71976;BME280;68326;52.124;5.424;2023-04-21T08:33:27;101473.38;;;11.80;90.07
71976;BME280;68326;52.124;5.424;2023-04-21T08:35:53;101473.34;;;12.01;91.40
71976;BME280;68326;52.124;5.424;2023-04-21T08:38:33;101482.31;;;12.32;89.15
71976;BME280;68326;52.124;5.424;2023-04-21T08:41:02;101485.00;;;12.30;89.40
71976;BME280;68326;52.124;5.424;2023-04-21T08:43:29;101481.63;;;12.28;86.98
71976;BME280;68326;52.124;5.424;2023-04-21T08:45:55;101479.22;;;12.23;87.54
71976;BME280;68326;52.124;5.424;2023-04-21T08:48:23;101483.59;;;12.23;88.13
71976;BME280;68326;52.124;5.424;2023-04-21T08:50:51;101485.31;;;12.24;89.45
71976;BME280;68326;52.124;5.424;2023-04-21T08:53:19;101479.22;;;12.23;88.09
71976;BME280;68326;52.124;5.424;2023-04-21T08:55:50;101480.72;;;12.29;88.43
71976;BME280;68326;52.124;5.424;2023-04-21T08:58:35;101477.09;;;12.32;87.64
71976;BME280;68326;52.124;5.424;2023-04-21T09:01:01;101471.19;;;12.28;87.02
71976;BME280;68326;52.124;5.424;2023-04-21T09:03:29;101470.00;;;12.35;89.48
71976;BME280;68326;52.124;5.424;2023-04-21T09:06:02;101474.69;;;12.46;89.02
71976;BME280;68326;52.124;5.424;2023-04-21T09:08:31;101474.09;;;12.58;88.71
71976;BME280;68326;52.124;5.424;2023-04-21T09:10:59;101476.88;;;12.73;88.88
71976;BME280;68326;52.124;5.424;2023-04-21T09:13:31;101478.94;;;12.83;87.25
71976;BME280;68326;52.124;5.424;2023-04-21T09:15:59;101468.34;;;12.69;85.75
71976;BME280;68326;52.124;5.424;2023-04-21T09:18:27;101474.47;;;12.68;87.07
71976;BME280;68326;52.124;5.424;2023-04-21T09:21:08;101470.97;;;12.69;86.31
71976;BME280;68326;52.124;5.424;2023-04-21T09:23:46;101472.09;;;12.81;86.50
71976;BME280;68326;52.124;5.424;2023-04-21T09:26:15;101467.97;;;12.94;86.50
71976;BME280;68326;52.124;5.424;2023-04-21T09:28:46;101472.34;;;13.11;85.79
71976;BME280;68326;52.124;5.424;2023-04-21T09:31:23;101482.41;;;13.19;84.29
71976;BME280;68326;52.124;5.424;2023-04-21T09:33:55;101476.66;;;13.30;85.79
71976;BME280;68326;52.124;5.424;2023-04-21T09:36:28;101480.97;;;13.31;82.41
71976;BME280;68326;52.124;5.424;2023-04-21T09:39:00;101471.78;;;13.04;81.17
71976;BME280;68326;52.124;5.424;2023-04-21T09:41:48;101468.88;;;13.11;81.80
71976;BME280;68326;52.124;5.424;2023-04-21T09:44:14;101473.56;;;13.21;82.15
71976;BME280;68326;52.124;5.424;2023-04-21T09:46:47;101472.13;;;13.16;83.68
71976;BME280;68326;52.124;5.424;2023-04-21T09:49:16;101468.56;;;13.17;81.38
71976;BME280;68326;52.124;5.424;2023-04-21T09:51:44;101460.50;;;13.39;83.16
71976;BME280;68326;52.124;5.424;2023-04-21T09:54:17;101459.84;;;13.51;81.80
71976;BME280;68326;52.124;5.424;2023-04-21T09:56:58;101455.13;;;13.58;81.81
71976;BME280;68326;52.124;5.424;2023-04-21T09:59:29;101445.59;;;13.57;81.29
71976;BME280;68326;52.124;5.424;2023-04-21T10:01:56;101452.38;;;13.61;82.54
71976;BME280;68326;52.124;5.424;2023-04-21T10:04:24;101454.03;;;13.62;82.43
71976;BME280;68326;52.124;5.424;2023-04-21T10:06:53;101454.59;;;13.69;81.50
71976;BME280;68326;52.124;5.424;2023-04-21T10:09:21;101463.41;;;13.66;79.29
71976;BME280;68326;52.124;5.424;2023-04-21T10:11:48;101453.97;;;13.63;80.95
71976;BME280;68326;52.124;5.424;2023-04-21T10:14:16;101447.13;;;13.77;81.96
71976;BME280;68326;52.124;5.424;2023-04-21T10:16:43;101453.91;;;14.13;81.59
71976;BME280;68326;52.124;5.424;2023-04-21T10:19:26;101455.69;;;14.28;80.33
71976;BME280;68326;52.124;5.424;2023-04-21T10:21:55;101450.69;;;14.23;78.57
71976;BME280;68326;52.124;5.424;2023-04-21T10:24:29;101443.69;;;14.24;78.99
71976;BME280;68326;52.124;5.424;2023-04-21T10:26:56;101442.47;;;14.45;77.14
71976;BME280;68326;52.124;5.424;2023-04-21T10:29:32;101441.88;;;14.40;77.90
71976;BME280;68326;52.124;5.424;2023-04-21T10:33:03;101436.84;;;14.37;77.78
71976;BME280;68326;52.124;5.424;2023-04-21T10:35:58;101437.78;;;14.04;77.52
71976;BME280;68326;52.124;5.424;2023-04-21T10:38:40;101441.50;;;14.00;78.16
71976;BME280;68326;52.124;5.424;2023-04-21T10:43:59;101429.94;;;14.04;77.75
71976;BME280;68326;52.124;5.424;2023-04-21T10:46:36;101430.63;;;14.08;77.82
71976;BME280;68326;52.124;5.424;2023-04-21T10:49:07;101419.47;;;14.04;78.48
71976;BME280;68326;52.124;5.424;2023-04-21T10:55:04;101408.22;;;14.02;78.58
71976;BME280;68326;52.124;5.424;2023-04-21T10:57:33;101412.13;;;13.95;79.06
71976;BME280;68326;52.124;5.424;2023-04-21T11:00:00;101418.69;;;14.02;79.73
71976;BME280;68326;52.124;5.424;2023-04-21T11:02:26;101407.09;;;13.92;76.42
71976;BME280;68326;52.124;5.424;2023-04-21T11:04:53;101419.63;;;13.70;77.35
71976;BME280;68326;52.124;5.424;2023-04-21T11:07:22;101404.72;;;13.72;80.02
71976;BME280;68326;52.124;5.424;2023-04-21T11:10:00;101404.63;;;13.73;79.69
71976;BME280;68326;52.124;5.424;2023-04-21T11:12:31;101400.06;;;13.77;79.47
71976;BME280;68326;52.124;5.424;2023-04-21T11:14:58;101388.16;;;13.87;80.32
71976;BME280;68326;52.124;5.424;2023-04-21T11:17:24;101385.81;;;13.98;77.34
71976;BME280;68326;52.124;5.424;2023-04-21T11:19:55;101391.53;;;14.05;77.86
71976;BME280;68326;52.124;5.424;2023-04-21T11:22:23;101395.69;;;14.09;78.47
71976;BME280;68326;52.124;5.424;2023-04-21T11:24:53;101387.28;;;14.02;77.49
71976;BME280;68326;52.124;5.424;2023-04-21T11:27:24;101385.06;;;13.96;78.30
71976;BME280;68326;52.124;5.424;2023-04-21T11:29:51;101380.22;;;13.89;79.47
71976;BME280;68326;52.124;5.424;2023-04-21T11:32:17;101369.84;;;13.87;78.76
71976;BME280;68326;52.124;5.424;2023-04-21T11:34:44;101368.31;;;13.83;77.44
71976;BME280;68326;52.124;5.424;2023-04-21T11:37:29;101372.81;;;13.97;77.91
71976;BME280;68326;52.124;5.424;2023-04-21T11:39:57;101366.06;;;13.93;77.27
71976;BME280;68326;52.124;5.424;2023-04-21T11:42:24;101360.06;;;13.91;77.38
71976;BME280;68326;52.124;5.424;2023-04-21T11:44:53;101362.00;;;14.03;77.79
71976;BME280;68326;52.124;5.424;2023-04-21T11:47:24;101355.69;;;14.21;78.57
71976;BME280;68326;52.124;5.424;2023-04-21T11:50:01;101352.09;;;14.38;77.19
71976;BME280;68326;52.124;5.424;2023-04-21T11:52:31;101346.50;;;14.89;75.17
71976;BME280;68326;52.124;5.424;2023-04-21T11:55:09;101339.75;;;15.42;74.96
71976;BME280;68326;52.124;5.424;2023-04-21T11:57:38;101339.03;;;15.82;71.96
71976;BME280;68326;52.124;5.424;2023-04-21T12:00:06;101338.75;;;15.72;72.12
71976;BME280;68326;52.124;5.424;2023-04-21T12:02:33;101328.91;;;15.61;72.61
71976;BME280;68326;52.124;5.424;2023-04-21T12:05:08;101332.25;;;15.36;72.27
71976;BME280;68326;52.124;5.424;2023-04-21T12:07:37;101334.72;;;15.25;72.86
71976;BME280;68326;52.124;5.424;2023-04-21T12:10:12;101329.66;;;15.22;73.75
71976;BME280;68326;52.124;5.424;2023-04-21T12:12:40;101331.44;;;15.21;71.13
71976;BME280;68326;52.124;5.424;2023-04-21T12:15:09;101330.22;;;15.13;71.87
71976;BME280;68326;52.124;5.424;2023-04-21T12:17:47;101327.88;;;15.22;72.53
71976;BME280;68326;52.124;5.424;2023-04-21T12:20:15;101324.97;;;15.13;71.62
71976;BME280;68326;52.124;5.424;2023-04-21T12:22:42;101316.81;;;15.17;73.03
71976;BME280;68326;52.124;5.424;2023-04-21T12:25:08;101314.00;;;15.35;72.60
71976;BME280;68326;52.124;5.424;2023-04-21T12:27:35;101311.16;;;15.52;72.49
71976;BME280;68326;52.124;5.424;2023-04-21T12:30:02;101312.41;;;16.01;71.45
71976;BME280;68326;52.124;5.424;2023-04-21T12:32:29;101302.06;;;16.25;71.43
71976;BME280;68326;52.124;5.424;2023-04-21T12:34:56;101311.66;;;16.51;68.25
71976;BME280;68326;52.124;5.424;2023-04-21T12:37:22;101306.19;;;16.55;66.64
71976;BME280;68326;52.124;5.424;2023-04-21T12:39:48;101301.75;;;16.29;67.27
71976;BME280;68326;52.124;5.424;2023-04-21T12:42:15;101292.84;;;16.32;67.31
71976;BME280;68326;52.124;5.424;2023-04-21T12:44:41;101282.09;;;16.22;66.77
71976;BME280;68326;52.124;5.424;2023-04-21T12:47:08;101289.41;;;16.04;67.38
71976;BME280;68326;52.124;5.424;2023-04-21T12:49:34;101287.38;;;15.82;68.37
71976;BME280;68326;52.124;5.424;2023-04-21T12:52:01;101280.19;;;15.72;69.39
71976;BME280;68326;52.124;5.424;2023-04-21T12:54:30;101278.44;;;15.58;69.13
71976;BME280;68326;52.124;5.424;2023-04-21T12:56:57;101276.31;;;15.50;70.46
71976;BME280;68326;52.124;5.424;2023-04-21T12:59:23;101277.84;;;15.40;69.91
71976;BME280;68326;52.124;5.424;2023-04-21T13:01:50;101269.63;;;15.17;69.78
71976;BME280;68326;52.124;5.424;2023-04-21T13:04:17;101269.00;;;14.99;69.08
71976;BME280;68326;52.124;5.424;2023-04-21T13:06:44;101272.59;;;14.98;71.18